sensor_id;sensor_type;location;lat;lon;timestamp;pressure;altitude;pressure_sealevel;temperature
68588;BMP180;55560;52.174;20.996;2023-07-29T00:00:24;99758.00;;;18.20
68588;BMP180;55560;52.174;20.996;2023-07-29T00:03:12;99762.40;;;18.20
68588;BMP180;55560;52.174;20.996;2023-07-29T00:05:40;99763.80;;;18.20
68588;BMP180;55560;52.174;20.996;2023-07-29T00:08:08;99769.20;;;18.20
68588;BMP180;55560;52.174;20.996;2023-07-29T00:10:37;99767.60;;;18.20
68588;BMP180;55560;52.174;20.996;2023-07-29T00:13:05;99765.00;;;18.20
68588;BMP180;55560;52.174;20.996;2023-07-29T00:15:34;99769.40;;;18.18
68588;BMP180;55560;52.174;20.996;2023-07-29T00:18:01;99767.60;;;18.16
68588;BMP180;55560;52.174;20.996;2023-07-29T00:20:30;99771.00;;;18.14
68588;BMP180;55560;52.174;20.996;2023-07-29T00:22:57;99776.60;;;18.14
68588;BMP180;55560;52.174;20.996;2023-07-29T00:25:26;99780.80;;;18.16
68588;BMP180;55560;52.174;20.996;2023-07-29T00:27:56;99782.60;;;18.10
68588;BMP180;55560;52.174;20.996;2023-07-29T00:30:26;99781.00;;;18.16
68588;BMP180;55560;52.174;20.996;2023-07-29T00:32:54;99786.20;;;18.16
68588;BMP180;55560;52.174;20.996;2023-07-29T00:35:21;99789.60;;;18.16
68588;BMP180;55560;52.174;20.996;2023-07-29T00:37:49;99789.00;;;18.20
68588;BMP180;55560;52.174;20.996;2023-07-29T00:40:22;99787.20;;;18.20
68588;BMP180;55560;52.174;20.996;2023-07-29T00:42:50;99786.60;;;18.20
68588;BMP180;55560;52.174;20.996;2023-07-29T00:45:18;99789.00;;;18.20
68588;BMP180;55560;52.174;20.996;2023-07-29T00:47:46;99796.00;;;18.20
68588;BMP180;55560;52.174;20.996;2023-07-29T00:50:17;99790.60;;;18.20
68588;BMP180;55560;52.174;20.996;2023-07-29T00:52:45;99793.80;;;18.20
68588;BMP180;55560;52.174;20.996;2023-07-29T00:55:13;99799.20;;;18.20
68588;BMP180;55560;52.174;20.996;2023-07-29T00:57:41;99797.40;;;18.20
68588;BMP180;55560;52.174;20.996;2023-07-29T01:00:10;99797.20;;;18.20
68588;BMP180;55560;52.174;20.996;2023-07-29T01:02:39;99793.00;;;18.20
68588;BMP180;55560;52.174;20.996;2023-07-29T01:05:07;99795.00;;;18.20
68588;BMP180;55560;52.174;20.996;2023-07-29T01:07:55;99797.80;;;18.20
68588;BMP180;55560;52.174;20.996;2023-07-29T01:11:03;99795.60;;;18.20
68588;BMP180;55560;52.174;20.996;2023-07-29T01:13:44;99796.80;;;18.24
68588;BMP180;55560;52.174;20.996;2023-07-29T01:16:30;99795.00;;;18.20
68588;BMP180;55560;52.174;20.996;2023-07-29T01:19:05;99796.60;;;18.20
68588;BMP180;55560;52.174;20.996;2023-07-29T01:21:36;99796.60;;;18.24
68588;BMP180;55560;52.174;20.996;2023-07-29T01:24:06;99798.00;;;18.20
68588;BMP180;55560;52.174;20.996;2023-07-29T01:26:33;99807.40;;;18.20
68588;BMP180;55560;52.174;20.996;2023-07-29T01:29:03;99805.60;;;18.20
68588;BMP180;55560;52.174;20.996;2023-07-29T01:31:40;99810.80;;;18.20
68588;BMP180;55560;52.174;20.996;2023-07-29T01:34:29;99814.20;;;18.20
68588;BMP180;55560;52.174;20.996;2023-07-29T01:37:00;99815.40;;;18.20
68588;BMP180;55560;52.174;20.996;2023-07-29T01:39:32;99818.40;;;18.20
68588;BMP180;55560;52.174;20.996;2023-07-29T01:42:02;99813.00;;;18.20
68588;BMP180;55560;52.174;20.996;2023-07-29T01:44:30;99819.20;;;18.20
68588;BMP180;55560;52.174;20.996;2023-07-29T01:46:59;99815.80;;;18.20
68588;BMP180;55560;52.174;20.996;2023-07-29T01:49:27;99817.00;;;18.20
68588;BMP180;55560;52.174;20.996;2023-07-29T01:51:55;99821.40;;;18.18
68588;BMP180;55560;52.174;20.996;2023-07-29T01:54:23;99824.20;;;18.20
68588;BMP180;55560;52.174;20.996;2023-07-29T01:56:51;99825.60;;;18.12
68588;BMP180;55560;52.174;20.996;2023-07-29T01:59:19;99828.60;;;18.10
68588;BMP180;55560;52.174;20.996;2023-07-29T02:01:47;99829.40;;;18.10
68588;BMP180;55560;52.174;20.996;2023-07-29T02:04:16;99828.40;;;18.10
68588;BMP180;55560;52.174;20.996;2023-07-29T02:06:44;99828.80;;;18.10
68588;BMP180;55560;52.174;20.996;2023-07-29T02:09:12;99830.00;;;18.10
68588;BMP180;55560;52.174;20.996;2023-07-29T02:11:40;99832.80;;;18.10
68588;BMP180;55560;52.174;20.996;2023-07-29T02:14:07;99836.60;;;18.10
68588;BMP180;55560;52.174;20.996;2023-07-29T02:16:35;99835.80;;;18.08
68588;BMP180;55560;52.174;20.996;2023-07-29T02:19:05;99839.00;;;18.00
68588;BMP180;55560;52.174;20.996;2023-07-29T02:21:33;99836.20;;;17.92
68588;BMP180;55560;52.174;20.996;2023-07-29T02:24:01;99839.80;;;17.90
68588;BMP180;55560;52.174;20.996;2023-07-29T02:26:29;99841.00;;;17.80
68588;BMP180;55560;52.174;20.996;2023-07-29T02:28:57;99842.00;;;17.80
68588;BMP180;55560;52.174;20.996;2023-07-29T02:31:25;99841.00;;;17.80
68588;BMP180;55560;52.174;20.996;2023-07-29T02:33:53;99841.20;;;17.80
68588;BMP180;55560;52.174;20.996;2023-07-29T02:36:21;99842.00;;;17.70
68588;BMP180;55560;52.174;20.996;2023-07-29T02:38:48;99845.00;;;17.70
68588;BMP180;55560;52.174;20.996;2023-07-29T02:41:16;99841.00;;;17.62
68588;BMP180;55560;52.174;20.996;2023-07-29T02:43:49;99843.80;;;17.60
68588;BMP180;55560;52.174;20.996;2023-07-29T02:46:18;99845.00;;;17.60
68588;BMP180;55560;52.174;20.996;2023-07-29T02:48:46;99844.60;;;17.52
68588;BMP180;55560;52.174;20.996;2023-07-29T02:51:14;99846.80;;;17.50
68588;BMP180;55560;52.174;20.996;2023-07-29T02:53:42;99849.60;;;17.50
68588;BMP180;55560;52.174;20.996;2023-07-29T02:56:10;99849.80;;;17.50
68588;BMP180;55560;52.174;20.996;2023-07-29T02:58:39;99857.40;;;17.50
68588;BMP180;55560;52.174;20.996;2023-07-29T03:01:08;99863.20;;;17.50
68588;BMP180;55560;52.174;20.996;2023-07-29T03:03:36;99862.60;;;17.50
68588;BMP180;55560;52.174;20.996;2023-07-29T03:06:09;99863.20;;;17.42
68588;BMP180;55560;52.174;20.996;2023-07-29T03:08:37;99865.80;;;17.40
68588;BMP180;55560;52.174;20.996;2023-07-29T03:11:16;99865.40;;;17.40
68588;BMP180;55560;52.174;20.996;2023-07-29T03:13:44;99868.00;;;17.40
68588;BMP180;55560;52.174;20.996;2023-07-29T03:16:17;99864.60;;;17.40
68588;BMP180;55560;52.174;20.996;2023-07-29T03:18:52;99864.00;;;17.40
68588;BMP180;55560;52.174;20.996;2023-07-29T03:21:20;99870.60;;;17.40
68588;BMP180;55560;52.174;20.996;2023-07-29T03:23:48;99871.60;;;17.40
68588;BMP180;55560;52.174;20.996;2023-07-29T03:26:16;99871.40;;;17.40
68588;BMP180;55560;52.174;20.996;2023-07-29T03:28:44;99872.00;;;17.30
68588;BMP180;55560;52.174;20.996;2023-07-29T03:31:12;99874.00;;;17.30
68588;BMP180;55560;52.174;20.996;2023-07-29T03:33:40;99875.20;;;17.30
68588;BMP180;55560;52.174;20.996;2023-07-29T03:36:08;99874.80;;;17.30
68588;BMP180;55560;52.174;20.996;2023-07-29T03:38:36;99874.20;;;17.30
68588;BMP180;55560;52.174;20.996;2023-07-29T03:41:08;99870.20;;;17.30
68588;BMP180;55560;52.174;20.996;2023-07-29T03:43:36;99874.20;;;17.32
68588;BMP180;55560;52.174;20.996;2023-07-29T03:46:04;99875.60;;;17.40
68588;BMP180;55560;52.174;20.996;2023-07-29T03:48:36;99878.20;;;17.30
68588;BMP180;55560;52.174;20.996;2023-07-29T03:51:04;99880.80;;;17.30
68588;BMP180;55560;52.174;20.996;2023-07-29T03:53:32;99881.80;;;17.30
68588;BMP180;55560;52.174;20.996;2023-07-29T03:56:00;99879.60;;;17.30
68588;BMP180;55560;52.174;20.996;2023-07-29T03:58:28;99883.60;;;17.36
68588;BMP180;55560;52.174;20.996;2023-07-29T04:00:56;99889.00;;;17.32
68588;BMP180;55560;52.174;20.996;2023-07-29T04:03:24;99891.20;;;17.36
68588;BMP180;55560;52.174;20.996;2023-07-29T04:05:52;99888.40;;;17.40
68588;BMP180;55560;52.174;20.996;2023-07-29T04:08:20;99891.00;;;17.40
68588;BMP180;55560;52.174;20.996;2023-07-29T04:10:48;99896.20;;;17.40
68588;BMP180;55560;52.174;20.996;2023-07-29T04:13:16;99895.20;;;17.40
68588;BMP180;55560;52.174;20.996;2023-07-29T04:15:45;99901.80;;;17.44
68588;BMP180;55560;52.174;20.996;2023-07-29T04:18:12;99903.60;;;17.46
68588;BMP180;55560;52.174;20.996;2023-07-29T04:20:41;99902.60;;;17.48
68588;BMP180;55560;52.174;20.996;2023-07-29T04:23:09;99905.00;;;17.50
68588;BMP180;55560;52.174;20.996;2023-07-29T04:25:36;99908.40;;;17.50
68588;BMP180;55560;52.174;20.996;2023-07-29T04:28:04;99912.40;;;17.50
68588;BMP180;55560;52.174;20.996;2023-07-29T04:30:32;99918.00;;;17.50
68588;BMP180;55560;52.174;20.996;2023-07-29T04:33:00;99918.60;;;17.50
68588;BMP180;55560;52.174;20.996;2023-07-29T04:35:28;99920.40;;;17.50
68588;BMP180;55560;52.174;20.996;2023-07-29T04:37:56;99923.80;;;17.50
68588;BMP180;55560;52.174;20.996;2023-07-29T04:40:24;99922.80;;;17.60
68588;BMP180;55560;52.174;20.996;2023-07-29T04:42:52;99934.20;;;17.60
68588;BMP180;55560;52.174;20.996;2023-07-29T04:45:20;99938.80;;;17.60
68588;BMP180;55560;52.174;20.996;2023-07-29T04:47:48;99941.20;;;17.66
68588;BMP180;55560;52.174;20.996;2023-07-29T04:50:16;99945.20;;;17.66
68588;BMP180;55560;52.174;20.996;2023-07-29T04:52:44;99945.20;;;17.70
68588;BMP180;55560;52.174;20.996;2023-07-29T04:55:11;99942.80;;;17.70
68588;BMP180;55560;52.174;20.996;2023-07-29T04:57:39;99945.00;;;17.72
68588;BMP180;55560;52.174;20.996;2023-07-29T05:00:07;99949.00;;;17.80
68588;BMP180;55560;52.174;20.996;2023-07-29T05:02:35;99950.20;;;17.80
68588;BMP180;55560;52.174;20.996;2023-07-29T05:05:04;99951.40;;;17.80
68588;BMP180;55560;52.174;20.996;2023-07-29T05:07:32;99952.00;;;17.90
68588;BMP180;55560;52.174;20.996;2023-07-29T05:10:00;99953.60;;;17.90
68588;BMP180;55560;52.174;20.996;2023-07-29T05:12:28;99957.60;;;17.96
68588;BMP180;55560;52.174;20.996;2023-07-29T05:14:57;99956.80;;;18.00
68588;BMP180;55560;52.174;20.996;2023-07-29T05:17:24;99962.20;;;18.00
68588;BMP180;55560;52.174;20.996;2023-07-29T05:19:53;99957.20;;;18.00
68588;BMP180;55560;52.174;20.996;2023-07-29T05:22:21;99960.40;;;18.10
68588;BMP180;55560;52.174;20.996;2023-07-29T05:24:49;99960.40;;;18.20
68588;BMP180;55560;52.174;20.996;2023-07-29T05:27:17;99959.00;;;18.38
68588;BMP180;55560;52.174;20.996;2023-07-29T05:29:45;99957.20;;;18.40
68588;BMP180;55560;52.174;20.996;2023-07-29T05:32:13;99960.20;;;18.50
68588;BMP180;55560;52.174;20.996;2023-07-29T05:34:42;99964.20;;;18.60
68588;BMP180;55560;52.174;20.996;2023-07-29T05:37:10;99962.60;;;18.60
68588;BMP180;55560;52.174;20.996;2023-07-29T05:39:38;99965.60;;;18.60
68588;BMP180;55560;52.174;20.996;2023-07-29T05:42:06;99966.80;;;18.68
68588;BMP180;55560;52.174;20.996;2023-07-29T05:44:34;99965.60;;;18.70
68588;BMP180;55560;52.174;20.996;2023-07-29T05:47:02;99958.40;;;18.70
68588;BMP180;55560;52.174;20.996;2023-07-29T05:49:30;99955.40;;;18.80
68588;BMP180;55560;52.174;20.996;2023-07-29T05:51:58;99962.80;;;18.80
68588;BMP180;55560;52.174;20.996;2023-07-29T05:54:26;99965.20;;;18.90
68588;BMP180;55560;52.174;20.996;2023-07-29T05:56:54;99970.00;;;18.90
68588;BMP180;55560;52.174;20.996;2023-07-29T05:59:22;99969.80;;;19.00
68588;BMP180;55560;52.174;20.996;2023-07-29T06:01:50;99976.00;;;19.00
68588;BMP180;55560;52.174;20.996;2023-07-29T06:04:18;99975.20;;;19.00
68588;BMP180;55560;52.174;20.996;2023-07-29T06:06:47;99977.60;;;19.00
68588;BMP180;55560;52.174;20.996;2023-07-29T06:09:14;99982.40;;;19.00
68588;BMP180;55560;52.174;20.996;2023-07-29T06:11:42;99987.40;;;19.00
68588;BMP180;55560;52.174;20.996;2023-07-29T06:14:10;99990.00;;;19.04
68588;BMP180;55560;52.174;20.996;2023-07-29T06:16:38;99994.20;;;19.10
68588;BMP180;55560;52.174;20.996;2023-07-29T06:19:06;99991.20;;;19.10
68588;BMP180;55560;52.174;20.996;2023-07-29T06:21:36;99996.40;;;19.20
68588;BMP180;55560;52.174;20.996;2023-07-29T06:24:04;100003.60;;;19.20
68588;BMP180;55560;52.174;20.996;2023-07-29T06:26:33;100004.00;;;19.30
68588;BMP180;55560;52.174;20.996;2023-07-29T06:29:02;100009.20;;;19.30
68588;BMP180;55560;52.174;20.996;2023-07-29T06:31:30;100015.40;;;19.40
68588;BMP180;55560;52.174;20.996;2023-07-29T06:33:58;100017.40;;;19.50
68588;BMP180;55560;52.174;20.996;2023-07-29T06:36:26;100020.60;;;19.56
68588;BMP180;55560;52.174;20.996;2023-07-29T06:38:54;100021.20;;;19.60
68588;BMP180;55560;52.174;20.996;2023-07-29T06:41:21;100023.20;;;19.60
68588;BMP180;55560;52.174;20.996;2023-07-29T06:43:50;100028.40;;;19.70
68588;BMP180;55560;52.174;20.996;2023-07-29T06:46:17;100029.00;;;19.70
68588;BMP180;55560;52.174;20.996;2023-07-29T06:48:46;100028.60;;;19.70
68588;BMP180;55560;52.174;20.996;2023-07-29T06:51:14;100030.40;;;19.80
68588;BMP180;55560;52.174;20.996;2023-07-29T06:53:42;100027.80;;;19.90
68588;BMP180;55560;52.174;20.996;2023-07-29T06:56:10;100023.20;;;19.90
68588;BMP180;55560;52.174;20.996;2023-07-29T06:58:38;100026.40;;;19.94
68588;BMP180;55560;52.174;20.996;2023-07-29T07:01:05;100032.40;;;20.00
68588;BMP180;55560;52.174;20.996;2023-07-29T07:03:33;100032.20;;;19.90
68588;BMP180;55560;52.174;20.996;2023-07-29T07:06:01;100029.60;;;19.90
68588;BMP180;55560;52.174;20.996;2023-07-29T07:08:30;100031.00;;;19.90
68588;BMP180;55560;52.174;20.996;2023-07-29T07:10:58;100029.20;;;19.90
68588;BMP180;55560;52.174;20.996;2023-07-29T07:13:26;100031.00;;;19.94
68588;BMP180;55560;52.174;20.996;2023-07-29T07:15:56;100028.00;;;20.00
68588;BMP180;55560;52.174;20.996;2023-07-29T07:18:24;100015.60;;;20.00
68588;BMP180;55560;52.174;20.996;2023-07-29T07:20:52;100019.20;;;20.20
68588;BMP180;55560;52.174;20.996;2023-07-29T07:23:20;100018.60;;;20.30
68588;BMP180;55560;52.174;20.996;2023-07-29T07:25:48;100021.60;;;20.40
68588;BMP180;55560;52.174;20.996;2023-07-29T07:28:16;100018.80;;;20.60
68588;BMP180;55560;52.174;20.996;2023-07-29T07:30:43;100015.60;;;20.60
68588;BMP180;55560;52.174;20.996;2023-07-29T07:33:11;100016.80;;;20.56
68588;BMP180;55560;52.174;20.996;2023-07-29T07:35:42;100016.80;;;20.50
68588;BMP180;55560;52.174;20.996;2023-07-29T07:38:10;100011.60;;;20.54
68588;BMP180;55560;52.174;20.996;2023-07-29T07:40:38;100007.80;;;20.50
68588;BMP180;55560;52.174;20.996;2023-07-29T07:43:06;100014.00;;;20.60
68588;BMP180;55560;52.174;20.996;2023-07-29T07:45:33;100009.00;;;20.60
68588;BMP180;55560;52.174;20.996;2023-07-29T07:48:01;100012.80;;;20.70
68588;BMP180;55560;52.174;20.996;2023-07-29T07:50:30;100017.20;;;20.80
68588;BMP180;55560;52.174;20.996;2023-07-29T07:52:58;100025.40;;;20.90
68588;BMP180;55560;52.174;20.996;2023-07-29T07:55:27;100021.80;;;21.00
68588;BMP180;55560;52.174;20.996;2023-07-29T07:57:55;100019.60;;;21.10
68588;BMP180;55560;52.174;20.996;2023-07-29T08:00:23;100019.20;;;21.10
68588;BMP180;55560;52.174;20.996;2023-07-29T08:02:50;100019.40;;;21.10
68588;BMP180;55560;52.174;20.996;2023-07-29T08:05:19;100017.40;;;21.08
68588;BMP180;55560;52.174;20.996;2023-07-29T08:07:46;100016.20;;;21.10
68588;BMP180;55560;52.174;20.996;2023-07-29T08:10:14;100018.40;;;21.10
68588;BMP180;55560;52.174;20.996;2023-07-29T08:12:42;100017.80;;;21.10
68588;BMP180;55560;52.174;20.996;2023-07-29T08:15:10;100016.20;;;21.12
68588;BMP180;55560;52.174;20.996;2023-07-29T08:17:38;100016.80;;;21.20
68588;BMP180;55560;52.174;20.996;2023-07-29T08:20:06;100013.80;;;21.40
68588;BMP180;55560;52.174;20.996;2023-07-29T08:22:34;100011.40;;;21.40
68588;BMP180;55560;52.174;20.996;2023-07-29T08:25:02;100011.00;;;21.50
68588;BMP180;55560;52.174;20.996;2023-07-29T08:27:33;100011.60;;;21.60
68588;BMP180;55560;52.174;20.996;2023-07-29T08:30:02;100010.80;;;21.80
68588;BMP180;55560;52.174;20.996;2023-07-29T08:32:30;100010.00;;;21.86
68588;BMP180;55560;52.174;20.996;2023-07-29T08:34:58;100009.80;;;22.00
68588;BMP180;55560;52.174;20.996;2023-07-29T08:37:25;100015.00;;;22.10
68588;BMP180;55560;52.174;20.996;2023-07-29T08:39:54;100013.60;;;22.10
68588;BMP180;55560;52.174;20.996;2023-07-29T08:42:23;100006.40;;;22.20
68588;BMP180;55560;52.174;20.996;2023-07-29T08:44:55;100001.00;;;22.30
68588;BMP180;55560;52.174;20.996;2023-07-29T08:47:23;100000.20;;;22.50
68588;BMP180;55560;52.174;20.996;2023-07-29T08:49:52;100002.80;;;22.50
68588;BMP180;55560;52.174;20.996;2023-07-29T08:52:21;100006.20;;;22.50
68588;BMP180;55560;52.174;20.996;2023-07-29T08:54:50;100002.80;;;22.48
68588;BMP180;55560;52.174;20.996;2023-07-29T08:57:20;99998.20;;;22.42
68588;BMP180;55560;52.174;20.996;2023-07-29T08:59:49;99997.60;;;22.50
68588;BMP180;55560;52.174;20.996;2023-07-29T09:02:17;100002.20;;;22.60
68588;BMP180;55560;52.174;20.996;2023-07-29T09:04:45;100002.20;;;22.70
68588;BMP180;55560;52.174;20.996;2023-07-29T09:07:13;99996.00;;;22.70
68588;BMP180;55560;52.174;20.996;2023-07-29T09:09:41;99996.80;;;22.80
68588;BMP180;55560;52.174;20.996;2023-07-29T09:12:09;99995.60;;;22.90
68588;BMP180;55560;52.174;20.996;2023-07-29T09:14:39;100002.20;;;22.90
68588;BMP180;55560;52.174;20.996;2023-07-29T09:17:08;99995.80;;;22.86
68588;BMP180;55560;52.174;20.996;2023-07-29T09:19:36;99998.20;;;22.80
68588;BMP180;55560;52.174;20.996;2023-07-29T09:22:05;99996.80;;;22.78
68588;BMP180;55560;52.174;20.996;2023-07-29T09:24:33;99991.80;;;22.70
68588;BMP180;55560;52.174;20.996;2023-07-29T09:27:01;99994.20;;;22.70
68588;BMP180;55560;52.174;20.996;2023-07-29T09:29:29;99993.00;;;22.80
68588;BMP180;55560;52.174;20.996;2023-07-29T09:32:17;99987.40;;;22.80
68588;BMP180;55560;52.174;20.996;2023-07-29T09:34:45;99983.40;;;22.90
68588;BMP180;55560;52.174;20.996;2023-07-29T09:37:23;99984.40;;;22.90
68588;BMP180;55560;52.174;20.996;2023-07-29T09:39:51;99984.80;;;22.80
68588;BMP180;55560;52.174;20.996;2023-07-29T09:42:20;99984.60;;;22.80
68588;BMP180;55560;52.174;20.996;2023-07-29T09:44:50;99979.00;;;22.86
68588;BMP180;55560;52.174;20.996;2023-07-29T09:47:23;99982.80;;;22.90
68588;BMP180;55560;52.174;20.996;2023-07-29T09:49:52;99979.20;;;23.04
68588;BMP180;55560;52.174;20.996;2023-07-29T09:52:22;99977.20;;;23.20
68588;BMP180;55560;52.174;20.996;2023-07-29T09:54:50;99973.20;;;23.20
68588;BMP180;55560;52.174;20.996;2023-07-29T09:57:18;99972.20;;;23.22
68588;BMP180;55560;52.174;20.996;2023-07-29T09:59:56;99978.80;;;23.30
68588;BMP180;55560;52.174;20.996;2023-07-29T10:02:26;99974.20;;;23.30
68588;BMP180;55560;52.174;20.996;2023-07-29T10:04:57;99970.80;;;23.40
68588;BMP180;55560;52.174;20.996;2023-07-29T10:07:26;99963.80;;;23.40
68588;BMP180;55560;52.174;20.996;2023-07-29T10:09:54;99960.40;;;23.42
68588;BMP180;55560;52.174;20.996;2023-07-29T10:12:22;99958.60;;;23.58
68588;BMP180;55560;52.174;20.996;2023-07-29T10:14:52;99960.20;;;23.60
68588;BMP180;55560;52.174;20.996;2023-07-29T10:17:21;99960.80;;;23.62
68588;BMP180;55560;52.174;20.996;2023-07-29T10:19:49;99962.20;;;23.70
68588;BMP180;55560;52.174;20.996;2023-07-29T10:22:20;99967.20;;;23.78
68588;BMP180;55560;52.174;20.996;2023-07-29T10:24:49;99969.00;;;23.80
68588;BMP180;55560;52.174;20.996;2023-07-29T10:27:19;99970.80;;;23.90
68588;BMP180;55560;52.174;20.996;2023-07-29T10:29:47;99965.00;;;24.00
68588;BMP180;55560;52.174;20.996;2023-07-29T10:32:16;99963.00;;;24.00
68588;BMP180;55560;52.174;20.996;2023-07-29T10:34:44;99963.60;;;24.10
68588;BMP180;55560;52.174;20.996;2023-07-29T10:37:12;99959.00;;;24.20
68588;BMP180;55560;52.174;20.996;2023-07-29T10:39:40;99958.80;;;24.30
68588;BMP180;55560;52.174;20.996;2023-07-29T10:42:19;99958.60;;;24.30
68588;BMP180;55560;52.174;20.996;2023-07-29T10:44:52;99957.20;;;24.40
68588;BMP180;55560;52.174;20.996;2023-07-29T10:47:25;99957.40;;;24.50
68588;BMP180;55560;52.174;20.996;2023-07-29T10:49:57;99956.20;;;24.62
68588;BMP180;55560;52.174;20.996;2023-07-29T10:52:40;99954.00;;;24.74
68588;BMP180;55560;52.174;20.996;2023-07-29T10:55:32;99950.40;;;24.82
68588;BMP180;55560;52.174;20.996;2023-07-29T10:58:14;99945.80;;;24.90
68588;BMP180;55560;52.174;20.996;2023-07-29T11:00:45;99945.60;;;25.00
68588;BMP180;55560;52.174;20.996;2023-07-29T11:03:13;99950.20;;;25.00
68588;BMP180;55560;52.174;20.996;2023-07-29T11:05:53;99946.80;;;25.04
68588;BMP180;55560;52.174;20.996;2023-07-29T11:08:27;99945.00;;;25.10
68588;BMP180;55560;52.174;20.996;2023-07-29T11:13:30;99946.40;;;25.14
68588;BMP180;55560;52.174;20.996;2023-07-29T11:15:59;99944.40;;;25.20
68588;BMP180;55560;52.174;20.996;2023-07-29T11:18:35;99944.20;;;25.20
68588;BMP180;55560;52.174;20.996;2023-07-29T11:21:03;99940.40;;;25.20
68588;BMP180;55560;52.174;20.996;2023-07-29T11:23:34;99937.80;;;25.20
68588;BMP180;55560;52.174;20.996;2023-07-29T11:26:04;99937.40;;;25.30
68588;BMP180;55560;52.174;20.996;2023-07-29T11:28:38;99925.00;;;25.40
68588;BMP180;55560;52.174;20.996;2023-07-29T11:31:07;99923.00;;;25.50
68588;BMP180;55560;52.174;20.996;2023-07-29T11:33:38;99922.20;;;25.60
68588;BMP180;55560;52.174;20.996;2023-07-29T11:36:18;99921.20;;;25.70
68588;BMP180;55560;52.174;20.996;2023-07-29T11:38:47;99917.60;;;25.70
68588;BMP180;55560;52.174;20.996;2023-07-29T11:41:19;99917.80;;;25.70
68588;BMP180;55560;52.174;20.996;2023-07-29T11:43:47;99907.80;;;25.60
68588;BMP180;55560;52.174;20.996;2023-07-29T11:46:15;99900.60;;;25.70
68588;BMP180;55560;52.174;20.996;2023-07-29T11:48:44;99904.80;;;25.80
68588;BMP180;55560;52.174;20.996;2023-07-29T11:51:12;99905.00;;;25.90
68588;BMP180;55560;52.174;20.996;2023-07-29T11:53:41;99896.20;;;26.00
68588;BMP180;55560;52.174;20.996;2023-07-29T11:56:10;99896.60;;;26.16
68588;BMP180;55560;52.174;20.996;2023-07-29T11:58:38;99895.20;;;26.26
68588;BMP180;55560;52.174;20.996;2023-07-29T12:01:07;99893.60;;;26.30
68588;BMP180;55560;52.174;20.996;2023-07-29T12:03:35;99894.40;;;26.30
68588;BMP180;55560;52.174;20.996;2023-07-29T12:06:03;99888.80;;;26.40
68588;BMP180;55560;52.174;20.996;2023-07-29T12:08:31;99886.80;;;26.54
68588;BMP180;55560;52.174;20.996;2023-07-29T12:10:59;99886.40;;;26.60
68588;BMP180;55560;52.174;20.996;2023-07-29T12:13:30;99883.60;;;26.70
68588;BMP180;55560;52.174;20.996;2023-07-29T12:16:02;99887.40;;;26.80
68588;BMP180;55560;52.174;20.996;2023-07-29T12:18:32;99884.60;;;27.00
68588;BMP180;55560;52.174;20.996;2023-07-29T12:21:00;99880.00;;;27.12
68588;BMP180;55560;52.174;20.996;2023-07-29T12:23:29;99876.20;;;27.20
68588;BMP180;55560;52.174;20.996;2023-07-29T12:25:59;99877.60;;;27.40
68588;BMP180;55560;52.174;20.996;2023-07-29T12:28:27;99877.20;;;27.50
68588;BMP180;55560;52.174;20.996;2023-07-29T12:30:56;99866.40;;;27.60
68588;BMP180;55560;52.174;20.996;2023-07-29T12:33:35;99861.60;;;27.70
68588;BMP180;55560;52.174;20.996;2023-07-29T12:36:04;99862.80;;;27.80
68588;BMP180;55560;52.174;20.996;2023-07-29T12:38:32;99864.20;;;28.00
68588;BMP180;55560;52.174;20.996;2023-07-29T12:40:59;99860.20;;;28.16
68588;BMP180;55560;52.174;20.996;2023-07-29T12:43:28;99860.80;;;28.20
68588;BMP180;55560;52.174;20.996;2023-07-29T12:45:57;99865.60;;;28.30
68588;BMP180;55560;52.174;20.996;2023-07-29T12:48:25;99862.80;;;28.30
68588;BMP180;55560;52.174;20.996;2023-07-29T12:50:53;99860.60;;;28.50
68588;BMP180;55560;52.174;20.996;2023-07-29T12:53:21;99860.80;;;28.70
68588;BMP180;55560;52.174;20.996;2023-07-29T12:55:49;99858.20;;;28.96
68588;BMP180;55560;52.174;20.996;2023-07-29T12:58:16;99859.80;;;29.20
68588;BMP180;55560;52.174;20.996;2023-07-29T13:00:44;99858.00;;;29.40
68588;BMP180;55560;52.174;20.996;2023-07-29T13:03:12;99848.20;;;29.60
68588;BMP180;55560;52.174;20.996;2023-07-29T13:05:41;99856.20;;;29.80
68588;BMP180;55560;52.174;20.996;2023-07-29T13:08:08;99854.20;;;30.00
68588;BMP180;55560;52.174;20.996;2023-07-29T13:10:38;99846.20;;;30.10
68588;BMP180;55560;52.174;20.996;2023-07-29T13:13:06;99849.00;;;30.28
68588;BMP180;55560;52.174;20.996;2023-07-29T13:15:34;99855.40;;;30.40
68588;BMP180;55560;52.174;20.996;2023-07-29T13:18:01;99852.60;;;30.50
68588;BMP180;55560;52.174;20.996;2023-07-29T13:20:30;99849.40;;;30.54
68588;BMP180;55560;52.174;20.996;2023-07-29T13:22:58;99844.60;;;30.66
68588;BMP180;55560;52.174;20.996;2023-07-29T13:25:25;99844.20;;;30.70
68588;BMP180;55560;52.174;20.996;2023-07-29T13:27:53;99846.60;;;30.80
68588;BMP180;55560;52.174;20.996;2023-07-29T13:30:21;99842.20;;;30.90
68588;BMP180;55560;52.174;20.996;2023-07-29T13:32:49;99835.80;;;31.00
68588;BMP180;55560;52.174;20.996;2023-07-29T13:35:17;99835.00;;;31.20
68588;BMP180;55560;52.174;20.996;2023-07-29T13:37:45;99831.40;;;31.38
68588;BMP180;55560;52.174;20.996;2023-07-29T13:40:13;99823.40;;;31.54
68588;BMP180;55560;52.174;20.996;2023-07-29T13:42:42;99831.40;;;31.70
68588;BMP180;55560;52.174;20.996;2023-07-29T13:45:10;99828.80;;;31.82
68588;BMP180;55560;52.174;20.996;2023-07-29T13:47:38;99823.20;;;32.08
68588;BMP180;55560;52.174;20.996;2023-07-29T13:50:06;99819.00;;;32.30
68588;BMP180;55560;52.174;20.996;2023-07-29T13:52:36;99814.00;;;32.62
68588;BMP180;55560;52.174;20.996;2023-07-29T13:55:05;99819.60;;;33.12
68588;BMP180;55560;52.174;20.996;2023-07-29T13:57:33;99822.00;;;33.64
68588;BMP180;55560;52.174;20.996;2023-07-29T14:00:01;99823.00;;;34.30
68588;BMP180;55560;52.174;20.996;2023-07-29T14:02:37;99824.20;;;35.20
68588;BMP180;55560;52.174;20.996;2023-07-29T14:05:06;99820.60;;;36.16
68588;BMP180;55560;52.174;20.996;2023-07-29T14:07:34;99820.40;;;37.20